Time;durP1;ratioP1;P1;durP2;ratioP2;P2;SDS_P1;SDS_P2;PMS_P1;PMS_P2;Temp;Humidity;BMP_temperature;BMP_pressure;BME280_temperature;BME280_humidity;BME280_pressure;Samples;Min_cycle;Max_cycle;Signal;HPM_P1;HPM_P2
2022/07/01 00:00:48;;;;;;;5.90;1.40;;;15.00;99.90;;;;;;4973139;28;20117;-74
2022/07/01 00:03:13;;;;;;;7.45;1.95;;;15.00;99.90;;;;;;4967959;28;20046;-74
2022/07/01 00:05:39;;;;;;;5.60;1.70;;;15.00;99.90;;;;;;4955007;28;20047;-74
2022/07/01 00:08:05;;;;;;;8.30;1.60;;;15.00;99.90;;;;;;4970841;28;20073;-74
2022/07/01 00:10:31;;;;;;;3.78;1.10;;;15.00;99.90;;;;;;4954860;28;20089;-73
2022/07/01 00:12:56;;;;;;;12.60;1.80;;;15.10;99.90;;;;;;4955085;28;20062;-73
2022/07/01 00:15:22;;;;;;;5.70;1.55;;;15.00;99.90;;;;;;4954293;28;20053;-74
2022/07/01 00:17:49;;;;;;;3.70;1.20;;;15.10;99.90;;;;;;4954899;28;20051;-73
2022/07/01 00:20:14;;;;;;;7.82;1.48;;;15.10;99.90;;;;;;4970732;28;20038;-73
2022/07/01 00:22:40;;;;;;;5.03;0.90;;;15.10;99.90;;;;;;4971155;28;20113;-73
2022/07/01 00:25:07;;;;;;;5.07;1.30;;;15.10;99.90;;;;;;4969448;28;20070;-74
2022/07/01 00:27:36;;;;;;;4.90;1.20;;;15.10;99.90;;;;;;4969020;28;20069;-74
2022/07/01 00:30:01;;;;;;;4.40;1.20;;;15.10;99.90;;;;;;4969528;28;20051;-74
2022/07/01 00:32:27;;;;;;;4.68;1.08;;;15.10;99.90;;;;;;4972041;28;20069;-74
2022/07/01 00:34:53;;;;;;;3.88;1.10;;;15.00;99.90;;;;;;4970798;28;20050;-73
2022/07/01 00:37:18;;;;;;;6.78;1.10;;;15.00;99.90;;;;;;4970163;28;20058;-74
2022/07/01 00:39:45;;;;;;;2.53;0.77;;;15.00;99.90;;;;;;4970358;28;20058;-73
2022/07/01 00:42:10;;;;;;;4.72;1.10;;;15.10;99.90;;;;;;4972473;28;20106;-73
2022/07/01 00:44:36;;;;;;;4.82;0.90;;;15.10;99.90;;;;;;4970073;28;20407;-73
2022/07/01 00:47:06;;;;;;;2.72;0.80;;;15.00;99.90;;;;;;4973833;28;20145;-74
2022/07/01 00:49:32;;;;;;;3.28;0.80;;;15.00;99.90;;;;;;4970963;28;20220;-74
2022/07/01 00:51:58;;;;;;;2.15;0.50;;;15.00;99.90;;;;;;4968447;28;20133;-74
2022/07/01 00:54:24;;;;;;;3.33;0.70;;;15.00;99.90;;;;;;4971528;28;20035;-74
2022/07/01 00:56:50;;;;;;;2.92;0.75;;;15.00;99.90;;;;;;4953437;28;20117;-74
2022/07/01 00:59:15;;;;;;;2.80;0.60;;;14.90;99.90;;;;;;4969907;28;20046;-74
2022/07/01 01:01:42;;;;;;;2.05;0.60;;;14.90;99.90;;;;;;4970656;28;20034;-74
2022/07/01 01:04:08;;;;;;;1.27;0.50;;;14.90;99.90;;;;;;4955306;28;20057;-74
2022/07/01 01:06:33;;;;;;;1.58;0.50;;;14.90;99.90;;;;;;4970481;28;20047;-74
2022/07/01 01:09:00;;;;;;;1.80;1.13;;;14.80;99.90;;;;;;4962626;28;20050;-74
2022/07/01 01:11:26;;;;;;;1.60;0.65;;;14.90;99.90;;;;;;4972611;28;20038;-74
2022/07/01 01:13:52;;;;;;;2.17;0.70;;;14.80;99.90;;;;;;4972261;28;20098;-74
2022/07/01 01:16:22;;;;;;;2.67;0.70;;;14.80;99.90;;;;;;4954876;28;20144;-74
2022/07/01 01:18:48;;;;;;;0.60;0.60;;;14.80;99.90;;;;;;4968979;28;20110;-74
2022/07/01 01:21:14;;;;;;;1.88;0.73;;;14.80;99.90;;;;;;4970402;28;20580;-74
2022/07/01 01:23:40;;;;;;;2.65;0.82;;;14.70;99.90;;;;;;4970013;28;20050;-74
2022/07/01 01:26:21;;;;;;;2.65;0.90;;;14.70;99.90;;;;;;4967451;28;20054;-74
2022/07/01 01:28:48;;;;;;;2.10;0.90;;;14.70;99.90;;;;;;4968220;28;20085;-74
2022/07/01 01:31:14;;;;;;;2.10;0.90;;;14.70;99.90;;;;;;4970600;28;20074;-74
2022/07/01 01:33:39;;;;;;;2.97;0.88;;;14.70;99.90;;;;;;4969241;28;20042;-74
2022/07/01 01:36:06;;;;;;;1.48;0.80;;;14.70;99.90;;;;;;4970015;28;20050;-74
2022/07/01 01:38:35;;;;;;;3.00;1.00;;;14.60;99.90;;;;;;4970899;28;20035;-74
2022/07/01 01:41:01;;;;;;;4.05;1.30;;;14.60;99.90;;;;;;4969595;28;20101;-74
2022/07/01 01:43:27;;;;;;;3.63;1.02;;;14.60;99.90;;;;;;4968933;28;20062;-74
2022/07/01 01:45:53;;;;;;;3.65;1.20;;;14.60;99.90;;;;;;4969105;28;20054;-74
2022/07/01 01:48:19;;;;;;;3.72;1.10;;;14.60;99.90;;;;;;4969807;28;20097;-74
2022/07/01 01:50:44;;;;;;;3.47;1.25;;;14.70;99.90;;;;;;4970761;28;20058;-74
2022/07/01 01:53:10;;;;;;;6.53;1.50;;;14.60;99.90;;;;;;4970204;28;20038;-74
2022/07/01 01:55:36;;;;;;;3.67;1.38;;;14.60;99.90;;;;;;4967690;28;20051;-74
2022/07/01 01:58:01;;;;;;;3.67;1.85;;;14.70;99.90;;;;;;4953122;28;20676;-74
2022/07/01 02:00:28;;;;;;;4.07;1.50;;;14.60;99.90;;;;;;4969738;28;20065;-74
2022/07/01 02:02:54;;;;;;;5.63;1.48;;;14.60;99.90;;;;;;4970670;28;20046;-74
2022/07/01 02:05:20;;;;;;;3.10;1.08;;;14.60;99.90;;;;;;4970133;28;20038;-74
2022/07/01 02:07:46;;;;;;;4.03;1.20;;;14.60;99.90;;;;;;4971151;28;20046;-74
2022/07/01 02:10:11;;;;;;;3.28;1.40;;;14.60;99.90;;;;;;4967141;28;20466;-74
2022/07/01 02:12:37;;;;;;;4.32;1.88;;;14.60;99.90;;;;;;4958588;28;20061;-74
2022/07/01 02:15:03;;;;;;;2.45;1.58;;;14.70;99.90;;;;;;4969544;28;20062;-74
2022/07/01 02:17:29;;;;;;;5.63;2.00;;;14.70;99.90;;;;;;4969366;28;20035;-74
2022/07/01 02:19:55;;;;;;;3.75;2.10;;;14.70;99.90;;;;;;4969182;28;20486;-74
2022/07/01 02:22:20;;;;;;;5.95;2.13;;;14.70;99.90;;;;;;4971729;28;20082;-75
2022/07/01 02:24:46;;;;;;;6.32;2.45;;;14.70;99.90;;;;;;4969717;28;20121;-75
2022/07/01 02:27:12;;;;;;;5.00;2.83;;;14.70;99.90;;;;;;4968965;28;20043;-75
2022/07/01 02:29:38;;;;;;;6.07;2.60;;;14.70;99.90;;;;;;4969902;28;20062;-75
2022/07/01 02:32:04;;;;;;;5.90;2.90;;;14.70;99.90;;;;;;4969365;28;20035;-75
2022/07/01 02:34:30;;;;;;;4.72;2.80;;;14.70;99.90;;;;;;4953604;28;20090;-75
2022/07/01 02:36:56;;;;;;;4.90;3.28;;;14.70;99.90;;;;;;4969232;28;20047;-75
2022/07/01 02:39:22;;;;;;;6.95;3.30;;;14.70;99.90;;;;;;4971079;28;20066;-75
2022/07/01 02:44:34;;;;;;;;;;;14.70;99.90;;;;;;4974167;28;20049;-75
2022/07/01 02:46:59;;;;;;;7.13;4.05;;;14.70;99.90;;;;;;4971047;28;19918;-75
2022/07/01 02:49:25;;;;;;;6.13;4.68;;;14.70;99.90;;;;;;4976492;28;20052;-75
2022/07/01 02:51:50;;;;;;;7.75;4.40;;;14.70;99.90;;;;;;4974219;28;20053;-75
2022/07/01 02:54:16;;;;;;;9.98;5.65;;;14.70;99.90;;;;;;4958585;28;20058;-75
2022/07/01 02:56:42;;;;;;;9.00;4.82;;;14.80;99.90;;;;;;4975541;28;20114;-75
2022/07/01 02:59:08;;;;;;;5.50;3.92;;;14.70;99.90;;;;;;4974429;28;20054;-75
2022/07/01 03:01:33;;;;;;;12.15;5.43;;;14.70;99.90;;;;;;4975982;28;20053;-75
2022/07/01 03:03:59;;;;;;;10.63;5.38;;;14.70;99.90;;;;;;4961997;28;20045;-75
2022/07/01 03:06:25;;;;;;;6.00;4.65;;;14.70;99.90;;;;;;4964163;28;20644;-75
2022/07/01 03:08:51;;;;;;;6.22;5.13;;;14.70;99.90;;;;;;4985746;28;20411;-75
2022/07/01 03:11:17;;;;;;;9.50;4.45;;;14.60;99.90;;;;;;4976888;28;20046;-75
2022/07/01 03:13:42;;;;;;;13.68;7.68;;;14.60;99.90;;;;;;4973845;28;20502;-75
2022/07/01 03:16:08;;;;;;;14.00;8.45;;;14.50;99.90;;;;;;4975565;28;20034;-75
2022/07/01 03:18:34;;;;;;;12.85;9.38;;;14.60;99.90;;;;;;4973809;28;20081;-75
2022/07/01 03:20:59;;;;;;;16.17;10.82;;;14.50;99.90;;;;;;4975398;28;20073;-75
2022/07/01 03:23:25;;;;;;;19.55;11.65;;;14.50;99.90;;;;;;4974309;28;20041;-75
2022/07/01 03:25:51;;;;;;;19.98;12.85;;;14.40;99.90;;;;;;4959474;28;20052;-75
2022/07/01 03:28:17;;;;;;;22.67;13.25;;;14.40;99.90;;;;;;4974335;28;20049;-75
2022/07/01 03:30:43;;;;;;;15.63;12.38;;;14.40;99.90;;;;;;4966101;28;20058;-75
2022/07/01 03:33:09;;;;;;;15.18;12.25;;;14.30;99.90;;;;;;4975246;28;20108;-75
2022/07/01 03:35:40;;;;;;;27.40;15.38;;;14.40;99.90;;;;;;4974592;28;20035;-75
2022/07/01 03:38:07;;;;;;;23.15;15.38;;;14.30;99.90;;;;;;4959104;28;20570;-75
2022/07/01 03:40:33;;;;;;;18.55;14.50;;;14.30;99.90;;;;;;4974981;28;20128;-75
2022/07/01 03:42:59;;;;;;;23.73;15.98;;;14.30;99.90;;;;;;4977630;28;20488;-75
2022/07/01 03:45:25;;;;;;;24.95;15.32;;;14.30;99.90;;;;;;4956534;28;20042;-75
2022/07/01 03:47:51;;;;;;;40.55;20.15;;;14.30;99.90;;;;;;4962890;28;20399;-75
2022/07/01 03:50:20;;;;;;;31.05;19.10;;;14.40;99.90;;;;;;4973968;28;20102;-76
2022/07/01 03:52:46;;;;;;;20.65;16.73;;;14.40;99.90;;;;;;4978209;28;20612;-76
2022/07/01 03:55:12;;;;;;;40.72;21.60;;;14.40;99.90;;;;;;4972701;28;20034;-76
2022/07/01 03:57:38;;;;;;;33.28;21.13;;;14.40;99.90;;;;;;4961626;28;20057;-76
2022/07/01 04:00:07;;;;;;;37.13;21.50;;;14.40;99.90;;;;;;4972928;28;20600;-75
2022/07/01 04:02:32;;;;;;;38.15;23.45;;;14.40;99.90;;;;;;4976955;28;20064;-75
2022/07/01 04:04:58;;;;;;;43.58;25.42;;;14.50;99.90;;;;;;4988006;28;20505;-75
2022/07/01 04:07:25;;;;;;;40.42;25.30;;;14.40;99.90;;;;;;4973494;28;20125;-75
2022/07/01 04:09:52;;;;;;;45.38;26.40;;;14.40;99.90;;;;;;4974782;28;20042;-75
2022/07/01 04:12:18;;;;;;;43.10;28.00;;;14.40;99.90;;;;;;4960656;28;20517;-75
2022/07/01 04:14:44;;;;;;;60.95;30.58;;;14.40;99.90;;;;;;4989925;28;20399;-75
2022/07/01 04:17:11;;;;;;;45.72;28.55;;;14.40;99.90;;;;;;4974662;28;20049;-75
2022/07/01 04:19:37;;;;;;;47.38;30.48;;;14.40;99.90;;;;;;4960592;28;20185;-75
2022/07/01 04:24:47;;;;;;;48.88;33.03;;;14.40;99.90;;;;;;4971398;28;20096;-75
2022/07/01 04:27:13;;;;;;;44.47;31.20;;;14.40;99.90;;;;;;4974189;28;20082;-75
2022/07/01 04:29:39;;;;;;;55.60;34.20;;;14.40;99.90;;;;;;4990343;28;20034;-75
2022/07/01 04:32:05;;;;;;;62.63;39.85;;;14.40;99.90;;;;;;4974150;28;20058;-75
2022/07/01 04:34:31;;;;;;;53.55;38.70;;;14.40;99.90;;;;;;4962842;28;20073;-75
2022/07/01 04:36:57;;;;;;;62.40;36.10;;;14.40;99.90;;;;;;4970764;28;20078;-75
2022/07/01 04:39:22;;;;;;;58.58;35.70;;;14.40;99.90;;;;;;4957368;28;20050;-75
2022/07/01 04:42:00;;;;;;;41.05;30.58;;;14.40;99.90;;;;;;4972055;28;20077;-76
2022/07/01 04:44:34;;;;;;;53.92;33.50;;;14.40;99.90;;;;;;4974528;28;20569;-76
2022/07/01 04:47:01;;;;;;;42.97;32.70;;;14.40;99.90;;;;;;4986048;28;20099;-75
2022/07/01 04:49:28;;;;;;;49.67;33.42;;;14.40;99.90;;;;;;4974032;28;20122;-75
2022/07/01 04:51:54;;;;;;;39.38;31.23;;;14.40;99.90;;;;;;4972859;28;20576;-75
2022/07/01 04:54:20;;;;;;;52.70;34.75;;;14.30;99.90;;;;;;4957281;28;20097;-75
2022/07/01 04:56:46;;;;;;;72.05;37.47;;;14.30;99.90;;;;;;4973494;28;20442;-75
2022/07/01 04:59:13;;;;;;;43.15;33.03;;;14.40;99.90;;;;;;4974161;28;20466;-75
2022/07/01 05:01:44;;;;;;;59.05;34.65;;;14.40;99.90;;;;;;4954380;28;20089;-75
2022/07/01 05:04:10;;;;;;;61.17;35.55;;;14.40;99.90;;;;;;4970726;28;20084;-75
2022/07/01 05:06:37;;;;;;;67.05;37.88;;;14.40;99.90;;;;;;4973133;28;20411;-75
2022/07/01 05:09:03;;;;;;;43.22;32.72;;;14.40;99.90;;;;;;4973330;28;20125;-75
2022/07/01 05:11:28;;;;;;;48.60;34.40;;;14.40;99.90;;;;;;4973847;28;20512;-75
2022/07/01 05:13:54;;;;;;;47.95;34.47;;;14.40;99.90;;;;;;4971744;28;20046;-75
2022/07/01 05:16:20;;;;;;;47.97;34.15;;;14.40;99.90;;;;;;4972018;28;20080;-75
2022/07/01 05:24:14;;;;;;;47.33;34.28;;;14.50;99.90;;;;;;4970327;28;20421;-75
2022/07/01 05:26:40;;;;;;;52.60;35.75;;;14.50;99.90;;;;;;4957437;28;20050;-75
2022/07/01 05:29:06;;;;;;;53.95;35.28;;;14.50;99.90;;;;;;4969399;28;20059;-75
2022/07/01 05:31:32;;;;;;;45.08;32.47;;;14.50;99.90;;;;;;4990832;28;20532;-75
2022/07/01 05:33:57;;;;;;;43.53;33.65;;;14.50;99.90;;;;;;4972752;28;20421;-75
2022/07/01 05:36:23;;;;;;;53.28;37.03;;;14.60;99.90;;;;;;4973010;28;20130;-75
2022/07/01 05:38:49;;;;;;;46.67;34.58;;;14.60;99.90;;;;;;4963613;28;20042;-75
2022/07/01 05:41:16;;;;;;;41.15;34.38;;;14.60;99.90;;;;;;4972063;28;20038;-75
2022/07/01 05:43:41;;;;;;;39.90;34.03;;;14.60;99.90;;;;;;4972289;28;20050;-75
2022/07/01 05:46:07;;;;;;;43.20;34.50;;;14.60;99.90;;;;;;4973083;28;20085;-75
2022/07/01 05:48:33;;;;;;;43.40;35.50;;;14.60;99.90;;;;;;4972865;28;20124;-75
2022/07/01 05:50:58;;;;;;;41.53;34.63;;;14.70;99.90;;;;;;4975474;28;20059;-75
2022/07/01 05:53:24;;;;;;;46.33;36.17;;;14.70;99.90;;;;;;4973401;28;20042;-75
2022/07/01 05:55:50;;;;;;;48.78;36.40;;;14.70;99.90;;;;;;4972701;28;20066;-75
2022/07/01 05:58:16;;;;;;;49.58;36.78;;;14.70;99.90;;;;;;4969070;28;20046;-75
2022/07/01 06:00:42;;;;;;;42.08;34.85;;;14.80;99.90;;;;;;4972895;28;20039;-76
2022/07/01 06:03:13;;;;;;;38.72;33.03;;;14.80;99.90;;;;;;4970501;28;20111;-76
2022/07/01 06:05:39;;;;;;;42.33;35.15;;;14.80;99.90;;;;;;4970155;28;20578;-75
2022/07/01 06:08:05;;;;;;;44.92;35.45;;;14.90;99.90;;;;;;4972832;28;20038;-75
2022/07/01 06:10:32;;;;;;;43.60;35.30;;;14.90;99.90;;;;;;4964042;28;20069;-75
2022/07/01 06:12:58;;;;;;;39.92;34.22;;;14.90;99.90;;;;;;4971788;28;20513;-75
2022/07/01 06:15:24;;;;;;;37.03;31.83;;;15.00;99.90;;;;;;4993340;28;20046;-75
2022/07/01 06:17:51;;;;;;;37.92;33.25;;;15.00;99.90;;;;;;4974655;28;20050;-75
2022/07/01 06:20:17;;;;;;;37.83;33.83;;;15.10;99.90;;;;;;4977576;28;20093;-75
2022/07/01 06:22:43;;;;;;;42.33;35.33;;;15.10;99.90;;;;;;4977388;28;20046;-75
2022/07/01 06:25:09;;;;;;;35.90;32.10;;;15.20;99.90;;;;;;4977400;28;20078;-75
2022/07/01 06:27:45;;;;;;;40.67;34.85;;;15.30;99.90;;;;;;4976137;28;20050;-75
2022/07/01 06:30:12;;;;;;;36.72;33.00;;;15.30;99.90;;;;;;4959614;28;20412;-75
2022/07/01 06:32:38;;;;;;;39.60;33.63;;;15.30;99.90;;;;;;4976274;28;20050;-75
2022/07/01 06:35:05;;;;;;;37.45;33.47;;;15.40;99.90;;;;;;4976516;28;20057;-75
2022/07/01 06:37:35;;;;;;;36.88;32.88;;;15.40;99.90;;;;;;4976507;28;20049;-75
2022/07/01 06:40:05;;;;;;;34.83;31.15;;;15.40;99.90;;;;;;4976877;28;20649;-75
2022/07/01 06:42:32;;;;;;;36.85;33.15;;;15.50;99.90;;;;;;4976131;28;20363;-75
2022/07/01 06:44:57;;;;;;;35.28;31.50;;;15.50;99.90;;;;;;4977051;28;20042;-75
2022/07/01 06:47:24;;;;;;;33.03;29.70;;;15.50;99.90;;;;;;4976446;28;20058;-75
2022/07/01 06:49:49;;;;;;;33.60;30.35;;;15.50;99.90;;;;;;4964637;28;20108;-75
2022/07/01 06:52:15;;;;;;;34.35;30.67;;;15.50;99.90;;;;;;4976638;28;20564;-75
2022/07/01 06:54:41;;;;;;;33.97;30.48;;;15.50;99.90;;;;;;4958921;28;20426;-75
2022/07/01 06:57:08;;;;;;;32.47;29.27;;;15.50;99.90;;;;;;4959766;28;20058;-74
2022/07/01 06:59:34;;;;;;;33.92;30.35;;;15.50;99.90;;;;;;4976705;28;20443;-75
2022/07/01 07:02:00;;;;;;;34.17;30.70;;;15.50;99.90;;;;;;4973097;28;20081;-75
2022/07/01 07:04:26;;;;;;;35.20;31.58;;;15.50;99.90;;;;;;4976426;28;20520;-75
2022/07/01 07:06:51;;;;;;;35.17;31.40;;;15.50;99.90;;;;;;4979221;28;20057;-75
2022/07/01 07:09:17;;;;;;;34.25;30.95;;;15.60;99.90;;;;;;4976533;28;20189;-74
2022/07/01 07:11:43;;;;;;;33.85;30.38;;;15.70;99.90;;;;;;4960021;28;20046;-74
2022/07/01 07:14:08;;;;;;;32.97;29.77;;;15.70;99.90;;;;;;4975522;28;20050;-74
2022/07/01 07:16:34;;;;;;;34.85;31.42;;;15.70;99.90;;;;;;4976305;28;20080;-74
2022/07/01 07:19:00;;;;;;;32.55;29.13;;;15.80;99.90;;;;;;4988066;28;20050;-74
2022/07/01 07:21:26;;;;;;;32.83;29.63;;;15.80;99.90;;;;;;4967580;28;20356;-74
2022/07/01 07:23:52;;;;;;;31.27;27.35;;;15.90;99.90;;;;;;4974229;28;20046;-74
2022/07/01 07:26:18;;;;;;;34.90;31.23;;;16.00;99.90;;;;;;4960029;28;20137;-74
2022/07/01 07:28:44;;;;;;;31.27;28.00;;;16.10;99.90;;;;;;4975126;28;20161;-74
2022/07/01 07:31:09;;;;;;;33.00;29.83;;;16.20;99.90;;;;;;4974698;28;20089;-74
2022/07/01 07:33:35;;;;;;;31.27;27.92;;;16.40;99.90;;;;;;4979463;28;20057;-74
2022/07/01 07:36:01;;;;;;;29.90;26.90;;;16.50;99.90;;;;;;4960462;28;20073;-74
2022/07/01 07:38:26;;;;;;;29.13;26.10;;;16.70;99.90;;;;;;4976291;28;20077;-73
2022/07/01 07:40:52;;;;;;;28.17;25.45;;;16.90;99.90;;;;;;4975749;28;20058;-73
2022/07/01 07:43:18;;;;;;;29.10;26.13;;;17.00;99.90;;;;;;4975691;28;20137;-73
2022/07/01 07:45:44;;;;;;;28.13;25.23;;;17.10;99.90;;;;;;4973218;28;20047;-73
2022/07/01 07:48:10;;;;;;;26.17;23.75;;;17.20;99.90;;;;;;4975082;28;20050;-73
2022/07/01 07:50:36;;;;;;;26.83;24.20;;;17.30;99.90;;;;;;4975883;28;20751;-73
2022/07/01 07:53:02;;;;;;;22.95;20.92;;;17.50;99.90;;;;;;4975657;28;20073;-73
2022/07/01 07:55:28;;;;;;;23.40;21.08;;;17.70;99.90;;;;;;4976292;28;20050;-73
2022/07/01 07:57:54;;;;;;;22.55;20.35;;;17.70;99.90;;;;;;4974706;28;20038;-73
2022/07/01 08:00:20;;;;;;;22.85;20.58;;;17.80;99.90;;;;;;4969889;28;20494;-73
2022/07/01 08:02:46;;;;;;;23.38;21.15;;;17.90;99.90;;;;;;4974075;28;20043;-73
2022/07/01 08:05:12;;;;;;;23.38;20.85;;;18.00;99.90;;;;;;4959711;28;20050;-74
2022/07/01 08:07:40;;;;;;;22.52;20.42;;;18.10;99.90;;;;;;4972600;28;20054;-74
2022/07/01 08:10:11;;;;;;;21.73;19.55;;;18.10;99.90;;;;;;4974822;28;20061;-74
2022/07/01 08:12:37;;;;;;;20.83;18.73;;;18.20;99.90;;;;;;4973885;28;20180;-74
2022/07/01 08:15:03;;;;;;;19.38;17.58;;;18.30;99.90;;;;;;4964303;28;20050;-74
2022/07/01 08:17:30;;;;;;;17.98;16.23;;;18.40;99.90;;;;;;4972557;28;20378;-74
2022/07/01 08:19:56;;;;;;;19.15;17.15;;;18.50;99.90;;;;;;4957260;28;20050;-74
2022/07/01 08:22:22;;;;;;;17.75;15.93;;;18.70;99.90;;;;;;4974637;28;20046;-75
2022/07/01 08:24:48;;;;;;;17.17;15.48;;;18.80;99.90;;;;;;4975508;28;20129;-74
2022/07/01 08:27:14;;;;;;;18.80;16.83;;;19.00;99.90;;;;;;4963634;28;20046;-74
2022/07/01 08:29:40;;;;;;;17.33;15.38;;;19.30;99.90;;;;;;4975024;28;20497;-74
2022/07/01 08:32:07;;;;;;;19.23;17.23;;;19.40;99.90;;;;;;4959232;28;20047;-75
2022/07/01 08:34:33;;;;;;;14.80;13.48;;;19.50;99.90;;;;;;4973999;28;20479;-75
2022/07/01 08:36:58;;;;;;;16.25;14.75;;;19.50;99.90;;;;;;4973912;28;20448;-75
2022/07/01 08:39:24;;;;;;;16.05;14.13;;;19.40;99.90;;;;;;4969950;28;20070;-74
2022/07/01 08:41:50;;;;;;;16.00;14.50;;;19.30;99.90;;;;;;4972703;28;20475;-74
2022/07/01 08:44:16;;;;;;;14.90;13.35;;;19.20;99.90;;;;;;4975435;28;20417;-74
2022/07/01 08:46:41;;;;;;;19.05;14.07;;;19.50;99.90;;;;;;4974546;28;20053;-75
2022/07/01 08:49:07;;;;;;;14.77;13.10;;;19.80;99.90;;;;;;4975191;28;20093;-75
2022/07/01 08:51:33;;;;;;;15.75;13.98;;;20.00;99.90;;;;;;4975589;28;20045;-75
2022/07/01 08:53:58;;;;;;;15.20;13.73;;;20.20;99.90;;;;;;4959992;28;20054;-75
2022/07/01 08:56:44;;;;;;;13.48;12.07;;;20.30;99.90;;;;;;4974937;28;20129;-75
2022/07/01 08:59:12;;;;;;;15.38;12.68;;;20.50;99.90;;;;;;4966377;28;20150;-75
2022/07/01 09:01:39;;;;;;;13.45;11.77;;;20.80;99.90;;;;;;4974102;28;20042;-75
2022/07/01 09:04:17;;;;;;;12.57;11.30;;;20.90;99.90;;;;;;4960454;28;20385;-75
2022/07/01 09:06:43;;;;;;;14.20;10.38;;;21.00;99.90;;;;;;4957677;28;20118;-75
2022/07/01 09:09:20;;;;;;;12.57;9.68;;;21.00;99.90;;;;;;4966221;28;20054;-75
2022/07/01 09:11:54;;;;;;;13.63;10.65;;;21.10;99.90;;;;;;4972476;28;20482;-75
2022/07/01 09:14:26;;;;;;;12.52;10.80;;;21.20;99.90;;;;;;4973909;28;20046;-69
2022/07/01 09:16:55;;;;;;;14.23;10.05;;;21.10;99.90;;;;;;4987362;28;20041;-68
2022/07/01 09:19:22;;;;;;;12.63;10.55;;;21.10;99.90;;;;;;4993898;28;20058;-69
2022/07/01 09:21:56;;;;;;;13.52;10.32;;;21.00;99.90;;;;;;4988505;28;20050;-69
2022/07/01 09:24:35;;;;;;;11.73;10.00;;;21.00;99.90;;;;;;4987563;28;20038;-69
2022/07/01 09:27:11;;;;;;;12.60;9.23;;;21.10;99.90;;;;;;4986570;28;20183;-70
2022/07/01 09:29:43;;;;;;;12.43;9.05;;;21.00;99.90;;;;;;4989886;28;20878;-69
2022/07/01 09:32:11;;;;;;;11.18;8.60;;;20.90;99.90;;;;;;4987422;28;20042;-69
2022/07/01 09:34:46;;;;;;;8.77;7.75;;;20.90;99.90;;;;;;4966707;28;20129;-69
2022/07/01 09:37:13;;;;;;;10.15;7.55;;;20.80;99.90;;;;;;4980861;28;20035;-69
2022/07/01 09:39:50;;;;;;;9.40;7.70;;;20.70;99.90;;;;;;4983095;28;20428;-69
2022/07/01 09:42:18;;;;;;;12.25;8.10;;;20.50;99.90;;;;;;4983870;28;20130;-69
2022/07/01 09:45:06;;;;;;;9.18;7.00;;;20.20;99.90;;;;;;4969748;28;20057;-69
2022/07/01 09:47:34;;;;;;;8.48;6.00;;;20.10;99.90;;;;;;4968021;28;20069;-69
2022/07/01 09:50:01;;;;;;;9.07;6.40;;;20.10;99.90;;;;;;4990995;28;20046;-69
2022/07/01 09:52:27;;;;;;;11.85;5.93;;;20.00;99.90;;;;;;4994342;28;20034;-69
2022/07/01 09:54:53;;;;;;;6.97;4.57;;;19.90;99.90;;;;;;4989736;28;20514;-69
2022/07/01 09:57:21;;;;;;;6.25;3.72;;;19.80;99.90;;;;;;4989664;28;20065;-69
2022/07/01 09:59:48;;;;;;;5.95;2.80;;;20.00;99.90;;;;;;4991381;28;20038;-69
2022/07/01 10:02:17;;;;;;;6.00;3.45;;;20.00;99.90;;;;;;4973067;28;20054;-69
2022/07/01 10:04:53;;;;;;;9.80;4.00;;;20.10;99.90;;;;;;4990714;28;20134;-69
2022/07/01 10:07:43;;;;;;;9.95;4.05;;;20.10;99.90;;;;;;4992005;28;20481;-68
2022/07/01 10:10:28;;;;;;;7.93;3.80;;;20.40;99.90;;;;;;4989606;28;20043;-69
2022/07/01 10:12:54;;;;;;;;;;;21.10;99.90;;;;;;4969416;28;20050;-68
2022/07/01 10:15:21;;;;;;;7.65;3.60;;;21.50;99.90;;;;;;4991656;28;19933;-69
2022/07/01 10:17:49;;;;;;;6.28;4.13;;;21.90;99.90;;;;;;4996338;28;20474;-69
2022/07/01 10:20:22;;;;;;;5.63;3.42;;;22.10;99.90;;;;;;4983693;28;20043;-69
2022/07/01 10:22:48;;;;;;;9.48;4.00;;;22.20;99.90;;;;;;4994074;28;20042;-69
2022/07/01 10:25:34;;;;;;;5.47;2.97;;;22.30;99.90;;;;;;4991130;28;20048;-70
2022/07/01 10:28:19;;;;;;;4.82;2.72;;;22.40;99.90;;;;;;4993468;28;20065;-70
2022/07/01 10:31:13;;;;;;;7.13;3.40;;;22.30;99.90;;;;;;4991311;28;20058;-69
2022/07/01 10:33:43;;;;;;;5.45;2.65;;;22.10;99.90;;;;;;4988395;28;20050;-69
2022/07/01 10:36:16;;;;;;;7.00;2.83;;;22.30;99.90;;;;;;4976834;28;20108;-69
2022/07/01 10:39:23;;;;;;;7.20;2.72;;;22.80;99.90;;;;;;4991290;28;20041;-69
2022/07/01 10:41:52;;;;;;;6.10;2.83;;;22.90;99.90;;;;;;4993231;28;20074;-69
2022/07/01 10:44:18;;;;;;;6.30;3.10;;;22.80;99.90;;;;;;4991736;28;20096;-69
2022/07/01 10:46:50;;;;;;;4.90;2.15;;;22.70;99.90;;;;;;4993867;28;20553;-69
2022/07/01 10:49:55;;;;;;;6.22;2.17;;;22.60;99.90;;;;;;4994562;28;20038;-69
2022/07/01 10:52:21;;;;;;;5.75;2.10;;;22.60;99.90;;;;;;4991033;28;20116;-69
2022/07/01 10:54:53;;;;;;;6.30;1.92;;;22.50;99.90;;;;;;4975944;28;20058;-69
2022/07/01 10:57:18;;;;;;;4.13;1.92;;;22.80;99.90;;;;;;4974863;28;20042;-69
2022/07/01 11:00:00;;;;;;;6.47;1.95;;;23.10;99.90;;;;;;4993792;28;20038;-69
2022/07/01 11:02:34;;;;;;;5.05;2.08;;;23.20;99.30;;;;;;4993592;28;20502;-69
2022/07/01 11:05:01;;;;;;;6.18;2.47;;;23.20;98.60;;;;;;4994430;28;20049;-69
2022/07/01 11:07:29;;;;;;;3.75;1.75;;;23.50;98.70;;;;;;4993656;28;20046;-69
2022/07/01 11:09:56;;;;;;;7.35;1.60;;;23.70;98.40;;;;;;4992199;28;20045;-69
2022/07/01 11:12:25;;;;;;;4.07;1.48;;;23.70;97.70;;;;;;4990656;28;20034;-69
2022/07/01 11:14:53;;;;;;;4.78;1.42;;;23.80;97.70;;;;;;4996093;28;20491;-69
2022/07/01 11:17:21;;;;;;;7.72;1.60;;;23.60;96.50;;;;;;4992615;28;20042;-69
2022/07/01 11:19:49;;;;;;;2.72;1.00;;;23.60;95.80;;;;;;4994316;28;20042;-69
2022/07/01 11:22:22;;;;;;;3.35;1.23;;;23.50;94.00;;;;;;4969609;28;20057;-70
2022/07/01 11:24:53;;;;;;;4.37;0.80;;;23.60;94.40;;;;;;4975735;28;20078;-70
2022/07/01 11:27:18;;;;;;;3.78;1.20;;;24.20;95.90;;;;;;4988849;28;20773;-70
2022/07/01 11:29:44;;;;;;;5.32;0.80;;;24.40;94.30;;;;;;4958533;28;20102;-70
2022/07/01 11:32:10;;;;;;;4.53;0.98;;;24.30;91.50;;;;;;4988379;28;20347;-70
2022/07/01 11:34:37;;;;;;;3.15;0.65;;;24.20;90.80;;;;;;4987860;28;20046;-70
2022/07/01 11:40:24;;;;;;;7.47;1.05;;;24.60;86.30;;;;;;4991344;28;20097;-69
2022/07/01 11:42:50;;;;;;;3.15;0.50;;;25.20;87.60;;;;;;4973027;28;20042;-69
2022/07/01 11:45:24;;;;;;;2.80;0.55;;;25.40;83.80;;;;;;4975623;28;20058;-69
2022/07/01 11:47:50;;;;;;;3.75;0.70;;;25.30;79.30;;;;;;4993088;28;20049;-70
2022/07/01 11:50:15;;;;;;;4.38;0.60;;;25.20;77.70;;;;;;4976104;28;20046;-69
2022/07/01 11:52:41;;;;;;;3.13;0.55;;;25.40;76.40;;;;;;4991047;28;20089;-69
2022/07/01 11:55:07;;;;;;;4.90;0.55;;;25.60;74.30;;;;;;4992740;28;20088;-69
2022/07/01 11:57:34;;;;;;;3.25;0.55;;;25.80;73.80;;;;;;4991038;28;20031;-69
2022/07/01 12:00:09;;;;;;;3.78;0.73;;;25.90;71.30;;;;;;4991890;28;20038;-69
2022/07/01 12:02:35;;;;;;;3.83;0.43;;;26.30;72.90;;;;;;4989550;28;20070;-69
2022/07/01 12:05:02;;;;;;;4.88;0.68;;;26.50;71.00;;;;;;4988561;28;20066;-69
2022/07/01 12:07:28;;;;;;;4.22;0.75;;;26.70;70.90;;;;;;4990584;28;20390;-67
2022/07/01 12:09:54;;;;;;;6.25;0.60;;;26.70;71.60;;;;;;4990614;28;20440;-66
2022/07/01 12:12:25;;;;;;;2.88;0.80;;;26.60;69.80;;;;;;4991426;28;20045;-66
2022/07/01 12:14:56;;;;;;;4.57;0.60;;;26.50;69.70;;;;;;4993136;28;20100;-67
2022/07/01 12:17:22;;;;;;;3.28;0.60;;;26.50;69.90;;;;;;4974569;28;20054;-67
2022/07/01 12:19:49;;;;;;;5.30;1.02;;;26.40;69.30;;;;;;4974009;28;20136;-66
2022/07/01 12:22:24;;;;;;;5.82;1.02;;;26.10;70.10;;;;;;4994156;28;20070;-67
2022/07/01 12:24:51;;;;;;;3.25;0.55;;;25.80;69.40;;;;;;4974752;28;20054;-68
2022/07/01 12:27:19;;;;;;;3.35;0.47;;;25.30;69.60;;;;;;4991492;28;20081;-68
2022/07/01 12:29:45;;;;;;;4.65;1.15;;;24.80;71.30;;;;;;4988958;28;20517;-68
2022/07/01 12:32:17;;;;;;;2.80;0.73;;;24.40;71.80;;;;;;4975017;28;20054;-69
2022/07/01 12:34:48;;;;;;;3.63;0.77;;;24.10;72.40;;;;;;4984009;28;20130;-69
2022/07/01 12:37:26;;;;;;;3.38;0.57;;;23.70;72.90;;;;;;4970833;28;20050;-69
2022/07/01 12:39:53;;;;;;;3.60;0.60;;;23.40;74.00;;;;;;4989797;28;20043;-69
2022/07/01 12:42:22;;;;;;;2.15;0.57;;;23.10;74.70;;;;;;4991251;28;20067;-68
2022/07/01 12:44:48;;;;;;;4.88;0.68;;;23.00;75.20;;;;;;4992543;28;20180;-68
2022/07/01 12:47:41;;;;;;;5.45;0.75;;;23.30;76.40;;;;;;4991750;28;20038;-69
2022/07/01 12:50:21;;;;;;;4.55;0.82;;;23.60;75.00;;;;;;4973498;28;20137;-69
2022/07/01 12:53:19;;;;;;;4.65;0.70;;;23.90;76.20;;;;;;4988500;28;20390;-68
2022/07/01 12:55:51;;;;;;;4.28;0.60;;;24.10;74.80;;;;;;4972375;28;20084;-66